sensor_id;sensor_type;location;lat;lon;timestamp;pressure;altitude;pressure_sealevel;temperature;humidity
59608;BME280;45426;44.726;10.390;2023-01-26T00:00:48;100896.03;;;2.44;100.00
59608;BME280;45426;44.726;10.390;2023-01-26T00:03:14;100885.78;;;2.10;100.00
59608;BME280;45426;44.726;10.390;2023-01-26T00:05:39;100885.56;;;2.38;100.00
59608;BME280;45426;44.726;10.390;2023-01-26T00:08:06;100882.53;;;2.03;100.00
59608;BME280;45426;44.726;10.390;2023-01-26T00:10:31;100884.53;;;1.65;100.00
59608;BME280;45426;44.726;10.390;2023-01-26T00:12:57;100881.03;;;1.60;100.00
59608;BME280;45426;44.726;10.390;2023-01-26T00:15:22;100885.91;;;1.73;100.00
59608;BME280;45426;44.726;10.390;2023-01-26T00:17:47;100884.31;;;1.24;100.00
59608;BME280;45426;44.726;10.390;2023-01-26T00:20:16;100886.31;;;1.44;100.00
59608;BME280;45426;44.726;10.390;2023-01-26T00:22:41;100891.44;;;1.56;100.00
59608;BME280;45426;44.726;10.390;2023-01-26T00:25:07;100882.25;;;1.42;100.00
59608;BME280;45426;44.726;10.390;2023-01-26T00:27:32;100891.91;;;1.43;100.00
59608;BME280;45426;44.726;10.390;2023-01-26T00:29:58;100881.31;;;1.15;100.00
59608;BME280;45426;44.726;10.390;2023-01-26T00:32:23;100881.59;;;1.19;100.00
59608;BME280;45426;44.726;10.390;2023-01-26T00:34:48;100878.91;;;1.19;100.00
59608;BME280;45426;44.726;10.390;2023-01-26T00:37:14;100872.00;;;1.28;100.00
59608;BME280;45426;44.726;10.390;2023-01-26T00:39:39;100864.00;;;1.28;100.00
59608;BME280;45426;44.726;10.390;2023-01-26T00:42:05;100871.44;;;1.16;100.00
59608;BME280;45426;44.726;10.390;2023-01-26T00:44:30;100862.06;;;1.19;100.00
59608;BME280;45426;44.726;10.390;2023-01-26T00:46:56;100860.97;;;1.20;100.00
59608;BME280;45426;44.726;10.390;2023-01-26T00:49:21;100855.59;;;1.09;100.00
59608;BME280;45426;44.726;10.390;2023-01-26T00:51:47;100862.13;;;0.91;100.00
59608;BME280;45426;44.726;10.390;2023-01-26T00:54:12;100869.00;;;0.77;100.00
59608;BME280;45426;44.726;10.390;2023-01-26T00:56:38;100867.13;;;0.45;100.00
59608;BME280;45426;44.726;10.390;2023-01-26T00:59:03;100866.72;;;0.96;100.00
59608;BME280;45426;44.726;10.390;2023-01-26T01:01:30;100856.25;;;0.89;100.00
59608;BME280;45426;44.726;10.390;2023-01-26T01:03:55;100848.00;;;0.96;100.00
59608;BME280;45426;44.726;10.390;2023-01-26T01:06:20;100849.63;;;1.02;100.00
59608;BME280;45426;44.726;10.390;2023-01-26T01:08:46;100852.50;;;0.90;100.00
59608;BME280;45426;44.726;10.390;2023-01-26T01:11:11;100851.53;;;1.02;100.00
59608;BME280;45426;44.726;10.390;2023-01-26T01:13:37;100847.06;;;0.80;100.00
59608;BME280;45426;44.726;10.390;2023-01-26T01:16:08;100854.66;;;1.36;100.00
59608;BME280;45426;44.726;10.390;2023-01-26T01:18:34;100844.88;;;1.09;100.00
59608;BME280;45426;44.726;10.390;2023-01-26T01:21:05;100860.44;;;1.17;100.00
59608;BME280;45426;44.726;10.390;2023-01-26T01:23:30;100853.16;;;1.08;100.00
59608;BME280;45426;44.726;10.390;2023-01-26T01:25:57;100852.22;;;1.34;100.00
59608;BME280;45426;44.726;10.390;2023-01-26T01:28:22;100854.84;;;1.19;100.00
59608;BME280;45426;44.726;10.390;2023-01-26T01:30:48;100854.25;;;1.12;100.00
59608;BME280;45426;44.726;10.390;2023-01-26T01:33:13;100846.13;;;1.39;100.00
59608;BME280;45426;44.726;10.390;2023-01-26T01:35:38;100849.88;;;1.43;100.00
59608;BME280;45426;44.726;10.390;2023-01-26T01:38:04;100850.38;;;1.35;100.00
59608;BME280;45426;44.726;10.390;2023-01-26T01:40:29;100843.47;;;1.49;100.00
59608;BME280;45426;44.726;10.390;2023-01-26T01:42:55;100845.00;;;1.30;100.00
59608;BME280;45426;44.726;10.390;2023-01-26T01:45:47;100845.22;;;1.23;100.00
59608;BME280;45426;44.726;10.390;2023-01-26T01:48:27;100845.41;;;1.64;100.00
59608;BME280;45426;44.726;10.390;2023-01-26T01:51:00;100845.97;;;1.61;100.00
59608;BME280;45426;44.726;10.390;2023-01-26T01:53:32;100834.38;;;1.50;100.00
59608;BME280;45426;44.726;10.390;2023-01-26T01:56:03;100832.13;;;2.05;100.00
59608;BME280;45426;44.726;10.390;2023-01-26T01:58:32;100825.19;;;2.14;100.00
59608;BME280;45426;44.726;10.390;2023-01-26T02:00:59;100833.50;;;2.03;100.00
59608;BME280;45426;44.726;10.390;2023-01-26T02:03:25;100837.53;;;2.10;100.00
59608;BME280;45426;44.726;10.390;2023-01-26T02:06:10;100832.72;;;2.23;100.00
59608;BME280;45426;44.726;10.390;2023-01-26T02:08:47;100839.69;;;2.29;100.00
59608;BME280;45426;44.726;10.390;2023-01-26T02:13:47;100827.06;;;2.14;100.00
59608;BME280;45426;44.726;10.390;2023-01-26T02:16:13;100830.06;;;2.48;100.00
59608;BME280;45426;44.726;10.390;2023-01-26T02:18:39;100816.09;;;2.31;100.00
59608;BME280;45426;44.726;10.390;2023-01-26T02:21:06;100826.25;;;2.03;100.00
59608;BME280;45426;44.726;10.390;2023-01-26T02:24:11;100821.91;;;1.87;100.00
59608;BME280;45426;44.726;10.390;2023-01-26T02:26:38;100812.75;;;1.67;100.00
59608;BME280;45426;44.726;10.390;2023-01-26T02:29:07;100814.97;;;1.96;100.00
59608;BME280;45426;44.726;10.390;2023-01-26T02:31:33;100810.91;;;1.78;100.00
59608;BME280;45426;44.726;10.390;2023-01-26T02:33:59;100807.50;;;2.08;100.00
59608;BME280;45426;44.726;10.390;2023-01-26T02:36:28;100798.41;;;2.61;100.00
59608;BME280;45426;44.726;10.390;2023-01-26T02:41:31;100790.34;;;2.76;100.00
59608;BME280;45426;44.726;10.390;2023-01-26T02:44:15;100785.81;;;2.46;100.00
59608;BME280;45426;44.726;10.390;2023-01-26T02:46:41;100788.47;;;2.15;100.00
59608;BME280;45426;44.726;10.390;2023-01-26T02:49:07;100781.50;;;2.14;100.00
59608;BME280;45426;44.726;10.390;2023-01-26T02:51:50;100776.41;;;1.97;100.00
59608;BME280;45426;44.726;10.390;2023-01-26T02:54:16;100776.66;;;1.96;100.00
59608;BME280;45426;44.726;10.390;2023-01-26T02:57:00;100772.13;;;2.27;100.00
59608;BME280;45426;44.726;10.390;2023-01-26T02:59:25;100766.19;;;2.71;100.00
59608;BME280;45426;44.726;10.390;2023-01-26T03:01:52;100757.59;;;2.74;100.00
59608;BME280;45426;44.726;10.390;2023-01-26T03:04:19;100761.88;;;2.85;100.00
59608;BME280;45426;44.726;10.390;2023-01-26T03:06:45;100746.00;;;3.04;100.00
59608;BME280;45426;44.726;10.390;2023-01-26T03:09:10;100746.31;;;2.92;100.00
59608;BME280;45426;44.726;10.390;2023-01-26T03:11:35;100750.91;;;2.56;100.00
59608;BME280;45426;44.726;10.390;2023-01-26T03:14:07;100756.78;;;2.89;100.00
59608;BME280;45426;44.726;10.390;2023-01-26T03:16:32;100740.06;;;3.13;100.00
59608;BME280;45426;44.726;10.390;2023-01-26T03:18:58;100738.25;;;2.87;100.00
59608;BME280;45426;44.726;10.390;2023-01-26T03:21:42;100742.06;;;2.50;100.00
59608;BME280;45426;44.726;10.390;2023-01-26T03:24:43;100739.16;;;2.37;100.00
59608;BME280;45426;44.726;10.390;2023-01-26T03:27:37;100739.41;;;2.09;100.00
59608;BME280;45426;44.726;10.390;2023-01-26T03:30:03;100726.81;;;2.30;100.00
59608;BME280;45426;44.726;10.390;2023-01-26T03:32:29;100729.25;;;2.06;100.00
59608;BME280;45426;44.726;10.390;2023-01-26T03:34:54;100722.25;;;2.10;100.00
59608;BME280;45426;44.726;10.390;2023-01-26T03:37:20;100726.50;;;2.68;100.00
59608;BME280;45426;44.726;10.390;2023-01-26T03:39:50;100716.78;;;2.87;100.00
59608;BME280;45426;44.726;10.390;2023-01-26T03:42:35;100716.31;;;2.70;100.00
59608;BME280;45426;44.726;10.390;2023-01-26T03:45:19;100708.47;;;2.89;100.00
59608;BME280;45426;44.726;10.390;2023-01-26T03:48:08;100703.78;;;2.19;100.00
59608;BME280;45426;44.726;10.390;2023-01-26T03:50:53;100701.09;;;1.99;100.00
59608;BME280;45426;44.726;10.390;2023-01-26T03:53:36;100709.09;;;1.83;100.00
59608;BME280;45426;44.726;10.390;2023-01-26T03:56:21;100704.03;;;2.38;100.00
59608;BME280;45426;44.726;10.390;2023-01-26T03:58:53;100701.88;;;1.89;100.00
59608;BME280;45426;44.726;10.390;2023-01-26T04:01:20;100697.06;;;1.70;100.00
59608;BME280;45426;44.726;10.390;2023-01-26T04:03:50;100698.13;;;1.85;100.00
59608;BME280;45426;44.726;10.390;2023-01-26T04:06:36;100702.44;;;1.86;100.00
59608;BME280;45426;44.726;10.390;2023-01-26T04:09:21;100694.66;;;1.84;100.00
59608;BME280;45426;44.726;10.390;2023-01-26T04:11:46;100695.16;;;1.50;100.00
59608;BME280;45426;44.726;10.390;2023-01-26T04:14:13;100694.63;;;1.53;100.00
59608;BME280;45426;44.726;10.390;2023-01-26T04:16:58;100698.34;;;1.47;100.00
59608;BME280;45426;44.726;10.390;2023-01-26T04:19:42;100704.44;;;1.22;100.00
59608;BME280;45426;44.726;10.390;2023-01-26T04:22:26;100694.25;;;1.19;100.00
59608;BME280;45426;44.726;10.390;2023-01-26T04:24:52;100688.47;;;1.63;100.00
59608;BME280;45426;44.726;10.390;2023-01-26T04:27:18;100683.13;;;1.99;100.00
59608;BME280;45426;44.726;10.390;2023-01-26T04:29:43;100677.53;;;2.06;100.00
59608;BME280;45426;44.726;10.390;2023-01-26T04:32:09;100676.97;;;1.73;100.00
59608;BME280;45426;44.726;10.390;2023-01-26T04:34:34;100674.53;;;1.66;100.00
59608;BME280;45426;44.726;10.390;2023-01-26T04:36:59;100665.97;;;1.90;100.00
59608;BME280;45426;44.726;10.390;2023-01-26T04:39:25;100664.38;;;1.94;100.00
59608;BME280;45426;44.726;10.390;2023-01-26T04:41:50;100661.69;;;1.89;100.00
59608;BME280;45426;44.726;10.390;2023-01-26T04:44:16;100659.81;;;2.05;100.00
59608;BME280;45426;44.726;10.390;2023-01-26T04:46:41;100659.56;;;2.06;100.00
59608;BME280;45426;44.726;10.390;2023-01-26T04:49:07;100660.09;;;1.72;100.00
59608;BME280;45426;44.726;10.390;2023-01-26T04:51:32;100658.47;;;1.71;100.00
59608;BME280;45426;44.726;10.390;2023-01-26T04:53:58;100660.09;;;1.72;100.00
59608;BME280;45426;44.726;10.390;2023-01-26T04:56:32;100667.28;;;1.51;100.00
59608;BME280;45426;44.726;10.390;2023-01-26T04:58:59;100662.75;;;1.57;100.00
59608;BME280;45426;44.726;10.390;2023-01-26T05:01:25;100664.06;;;1.49;100.00
59608;BME280;45426;44.726;10.390;2023-01-26T05:03:51;100663.81;;;1.51;100.00
59608;BME280;45426;44.726;10.390;2023-01-26T05:06:16;100664.88;;;1.55;100.00
59608;BME280;45426;44.726;10.390;2023-01-26T05:08:42;100654.47;;;1.74;100.00
59608;BME280;45426;44.726;10.390;2023-01-26T05:11:07;100650.97;;;1.63;100.00
59608;BME280;45426;44.726;10.390;2023-01-26T05:13:33;100653.09;;;1.51;100.00
59608;BME280;45426;44.726;10.390;2023-01-26T05:16:03;100649.34;;;1.42;100.00
59608;BME280;45426;44.726;10.390;2023-01-26T05:18:29;100648.03;;;1.90;100.00
59608;BME280;45426;44.726;10.390;2023-01-26T05:20:55;100649.59;;;2.38;100.00
59608;BME280;45426;44.726;10.390;2023-01-26T05:23:21;100639.66;;;2.43;100.00
59608;BME280;45426;44.726;10.390;2023-01-26T05:25:46;100640.19;;;2.40;100.00
59608;BME280;45426;44.726;10.390;2023-01-26T05:28:12;100652.56;;;2.26;100.00
59608;BME280;45426;44.726;10.390;2023-01-26T05:30:37;100646.69;;;1.88;100.00
59608;BME280;45426;44.726;10.390;2023-01-26T05:33:04;100650.69;;;2.11;100.00
59608;BME280;45426;44.726;10.390;2023-01-26T05:35:30;100652.59;;;1.85;100.00
59608;BME280;45426;44.726;10.390;2023-01-26T05:37:55;100652.31;;;1.91;100.00
59608;BME280;45426;44.726;10.390;2023-01-26T05:40:21;100649.94;;;1.80;100.00
59608;BME280;45426;44.726;10.390;2023-01-26T05:42:46;100660.09;;;1.93;100.00
59608;BME280;45426;44.726;10.390;2023-01-26T05:45:12;100659.84;;;1.89;100.00
59608;BME280;45426;44.726;10.390;2023-01-26T05:47:38;100670.28;;;2.06;100.00
59608;BME280;45426;44.726;10.390;2023-01-26T05:50:04;100661.66;;;2.30;100.00
59608;BME280;45426;44.726;10.390;2023-01-26T05:52:30;100662.44;;;2.36;100.00
59608;BME280;45426;44.726;10.390;2023-01-26T05:54:56;100651.53;;;2.11;100.00
59608;BME280;45426;44.726;10.390;2023-01-26T05:57:21;100658.44;;;2.38;100.00
59608;BME280;45426;44.726;10.390;2023-01-26T05:59:47;100653.63;;;2.14;100.00
59608;BME280;45426;44.726;10.390;2023-01-26T06:02:12;100659.53;;;1.96;100.00
59608;BME280;45426;44.726;10.390;2023-01-26T06:04:38;100649.38;;;1.93;100.00
59608;BME280;45426;44.726;10.390;2023-01-26T06:07:03;100652.88;;;1.99;100.00
59608;BME280;45426;44.726;10.390;2023-01-26T06:09:29;100645.63;;;2.04;100.00
59608;BME280;45426;44.726;10.390;2023-01-26T06:11:55;100646.94;;;2.22;100.00
59608;BME280;45426;44.726;10.390;2023-01-26T06:14:21;100645.28;;;2.42;100.00
59608;BME280;45426;44.726;10.390;2023-01-26T06:16:46;100637.78;;;2.44;100.00
59608;BME280;45426;44.726;10.390;2023-01-26T06:19:12;100642.69;;;2.06;100.00
59608;BME280;45426;44.726;10.390;2023-01-26T06:21:37;100642.41;;;1.87;100.00
59608;BME280;45426;44.726;10.390;2023-01-26T06:24:03;100635.72;;;1.74;100.00
59608;BME280;45426;44.726;10.390;2023-01-26T06:26:29;100637.84;;;1.82;100.00
59608;BME280;45426;44.726;10.390;2023-01-26T06:28:54;100642.41;;;1.71;100.00
59608;BME280;45426;44.726;10.390;2023-01-26T06:31:20;100645.56;;;2.45;100.00
59608;BME280;45426;44.726;10.390;2023-01-26T06:33:48;100634.31;;;2.33;100.00
59608;BME280;45426;44.726;10.390;2023-01-26T06:36:14;100642.38;;;2.07;100.00
59608;BME280;45426;44.726;10.390;2023-01-26T06:38:47;100643.47;;;1.86;100.00
59608;BME280;45426;44.726;10.390;2023-01-26T06:41:13;100642.94;;;1.94;100.00
59608;BME280;45426;44.726;10.390;2023-01-26T06:43:43;100636.53;;;1.95;100.00
59608;BME280;45426;44.726;10.390;2023-01-26T06:46:10;100633.63;;;2.82;100.00
59608;BME280;45426;44.726;10.390;2023-01-26T06:48:35;100636.34;;;2.72;100.00
59608;BME280;45426;44.726;10.390;2023-01-26T06:54:09;100628.19;;;2.17;100.00
59608;BME280;45426;44.726;10.390;2023-01-26T06:56:34;100628.38;;;2.41;100.00
59608;BME280;45426;44.726;10.390;2023-01-26T06:59:00;100631.38;;;2.24;100.00
59608;BME280;45426;44.726;10.390;2023-01-26T07:01:25;100632.75;;;1.96;100.00
59608;BME280;45426;44.726;10.390;2023-01-26T07:03:53;100636.22;;;2.22;100.00
59608;BME280;45426;44.726;10.390;2023-01-26T07:06:18;100631.66;;;2.23;100.00
59608;BME280;45426;44.726;10.390;2023-01-26T07:08:44;100625.47;;;2.32;100.00
59608;BME280;45426;44.726;10.390;2023-01-26T07:11:10;100627.94;;;2.13;100.00
59608;BME280;45426;44.726;10.390;2023-01-26T07:13:37;100625.75;;;2.26;100.00
59608;BME280;45426;44.726;10.390;2023-01-26T07:16:04;100627.78;;;2.65;100.00
59608;BME280;45426;44.726;10.390;2023-01-26T07:18:30;100630.00;;;2.42;100.00
59608;BME280;45426;44.726;10.390;2023-01-26T07:21:02;100623.53;;;2.48;100.00
59608;BME280;45426;44.726;10.390;2023-01-26T07:23:29;100620.25;;;2.77;100.00
59608;BME280;45426;44.726;10.390;2023-01-26T07:25:54;100615.53;;;2.33;100.00
59608;BME280;45426;44.726;10.390;2023-01-26T07:28:20;100623.63;;;2.07;100.00
59608;BME280;45426;44.726;10.390;2023-01-26T07:30:45;100617.22;;;2.13;100.00
59608;BME280;45426;44.726;10.390;2023-01-26T07:33:11;100628.09;;;2.53;100.00
59608;BME280;45426;44.726;10.390;2023-01-26T07:35:36;100626.94;;;2.80;100.00
59608;BME280;45426;44.726;10.390;2023-01-26T07:38:04;100628.22;;;2.92;100.00
59608;BME280;45426;44.726;10.390;2023-01-26T07:40:30;100627.47;;;3.71;100.00
59608;BME280;45426;44.726;10.390;2023-01-26T07:42:56;100618.88;;;4.52;100.00
59608;BME280;45426;44.726;10.390;2023-01-26T07:45:21;100600.31;;;6.02;100.00
59608;BME280;45426;44.726;10.390;2023-01-26T07:47:47;100597.47;;;6.68;100.00
59608;BME280;45426;44.726;10.390;2023-01-26T07:50:12;100593.38;;;6.43;100.00
59608;BME280;45426;44.726;10.390;2023-01-26T07:52:38;100609.31;;;3.87;100.00
59608;BME280;45426;44.726;10.390;2023-01-26T07:55:04;100606.28;;;3.64;100.00
59608;BME280;45426;44.726;10.390;2023-01-26T07:57:30;100606.03;;;3.95;100.00
59608;BME280;45426;44.726;10.390;2023-01-26T07:59:56;100607.38;;;3.93;100.00
59608;BME280;45426;44.726;10.390;2023-01-26T08:02:21;100616.31;;;3.09;100.00
59608;BME280;45426;44.726;10.390;2023-01-26T08:04:47;100618.66;;;3.26;100.00
59608;BME280;45426;44.726;10.390;2023-01-26T08:07:13;100622.50;;;3.09;100.00
59608;BME280;45426;44.726;10.390;2023-01-26T08:09:38;100618.16;;;3.14;100.00
59608;BME280;45426;44.726;10.390;2023-01-26T08:12:04;100613.22;;;3.31;100.00
59608;BME280;45426;44.726;10.390;2023-01-26T08:14:29;100610.91;;;3.88;100.00
59608;BME280;45426;44.726;10.390;2023-01-26T08:16:55;100606.22;;;4.28;100.00
59608;BME280;45426;44.726;10.390;2023-01-26T08:19:20;100616.47;;;4.26;100.00
59608;BME280;45426;44.726;10.390;2023-01-26T08:21:46;100609.16;;;4.32;100.00
59608;BME280;45426;44.726;10.390;2023-01-26T08:24:11;100608.13;;;4.76;100.00
59608;BME280;45426;44.726;10.390;2023-01-26T08:26:37;100602.34;;;4.82;100.00
59608;BME280;45426;44.726;10.390;2023-01-26T08:29:02;100610.63;;;4.19;100.00
59608;BME280;45426;44.726;10.390;2023-01-26T08:31:28;100608.69;;;4.48;100.00
59608;BME280;45426;44.726;10.390;2023-01-26T08:33:54;100604.78;;;4.60;100.00
59608;BME280;45426;44.726;10.390;2023-01-26T08:36:20;100606.88;;;4.44;100.00
59608;BME280;45426;44.726;10.390;2023-01-26T08:38:45;100610.41;;;5.25;100.00
59608;BME280;45426;44.726;10.390;2023-01-26T08:41:11;100603.41;;;5.05;100.00
59608;BME280;45426;44.726;10.390;2023-01-26T08:43:37;100601.22;;;5.27;100.00
59608;BME280;45426;44.726;10.390;2023-01-26T08:46:03;100592.25;;;6.85;100.00
59608;BME280;45426;44.726;10.390;2023-01-26T08:48:29;100591.53;;;4.88;100.00
59608;BME280;45426;44.726;10.390;2023-01-26T08:50:57;100581.25;;;5.79;100.00
59608;BME280;45426;44.726;10.390;2023-01-26T08:53:23;100586.13;;;5.63;100.00
59608;BME280;45426;44.726;10.390;2023-01-26T08:55:49;100586.94;;;6.25;100.00
59608;BME280;45426;44.726;10.390;2023-01-26T08:58:15;100586.84;;;6.71;100.00
59608;BME280;45426;44.726;10.390;2023-01-26T09:00:40;100580.56;;;7.12;100.00
59608;BME280;45426;44.726;10.390;2023-01-26T09:03:06;100593.94;;;6.67;100.00
59608;BME280;45426;44.726;10.390;2023-01-26T09:05:36;100589.09;;;6.41;100.00
59608;BME280;45426;44.726;10.390;2023-01-26T09:08:07;100592.41;;;7.03;100.00
59608;BME280;45426;44.726;10.390;2023-01-26T09:10:33;100588.31;;;7.05;100.00
59608;BME280;45426;44.726;10.390;2023-01-26T09:12:59;100585.84;;;6.39;100.00
59608;BME280;45426;44.726;10.390;2023-01-26T09:15:26;100584.53;;;6.78;100.00
59608;BME280;45426;44.726;10.390;2023-01-26T09:17:51;100582.75;;;7.10;100.00
59608;BME280;45426;44.726;10.390;2023-01-26T09:20:17;100589.16;;;6.78;100.00
59608;BME280;45426;44.726;10.390;2023-01-26T09:22:43;100590.56;;;6.75;100.00
59608;BME280;45426;44.726;10.390;2023-01-26T09:25:09;100594.19;;;7.07;100.00
59608;BME280;45426;44.726;10.390;2023-01-26T09:27:35;100591.97;;;6.59;100.00
59608;BME280;45426;44.726;10.390;2023-01-26T09:30:01;100597.97;;;6.70;100.00
59608;BME280;45426;44.726;10.390;2023-01-26T09:32:27;100588.34;;;7.50;100.00
59608;BME280;45426;44.726;10.390;2023-01-26T09:34:52;100582.63;;;8.06;100.00
59608;BME280;45426;44.726;10.390;2023-01-26T09:37:18;100591.75;;;7.42;100.00
59608;BME280;45426;44.726;10.390;2023-01-26T09:39:43;100588.50;;;8.08;100.00
59608;BME280;45426;44.726;10.390;2023-01-26T09:50:18;100586.09;;;7.97;100.00
59608;BME280;45426;44.726;10.390;2023-01-26T09:52:49;100585.91;;;8.34;100.00
59608;BME280;45426;44.726;10.390;2023-01-26T09:55:18;100576.22;;;8.90;100.00
59608;BME280;45426;44.726;10.390;2023-01-26T09:57:54;100570.88;;;10.28;100.00
59608;BME280;45426;44.726;10.390;2023-01-26T10:00:21;100567.97;;;13.57;100.00
59608;BME280;45426;44.726;10.390;2023-01-26T10:03:16;100567.28;;;16.61;100.00
59608;BME280;45426;44.726;10.390;2023-01-26T10:05:49;100567.38;;;15.72;100.00
59608;BME280;45426;44.726;10.390;2023-01-26T10:08:17;100564.22;;;14.92;100.00
59608;BME280;45426;44.726;10.390;2023-01-26T10:10:58;100561.97;;;12.21;100.00
59608;BME280;45426;44.726;10.390;2023-01-26T10:13:26;100574.31;;;9.52;100.00
59608;BME280;45426;44.726;10.390;2023-01-26T10:16:08;100560.97;;;9.94;100.00
59608;BME280;45426;44.726;10.390;2023-01-26T10:21:19;100565.56;;;8.94;100.00
59608;BME280;45426;44.726;10.390;2023-01-26T10:23:47;100564.03;;;7.82;100.00
59608;BME280;45426;44.726;10.390;2023-01-26T10:26:19;100559.34;;;8.85;100.00
59608;BME280;45426;44.726;10.390;2023-01-26T10:28:47;100555.66;;;9.07;100.00
59608;BME280;45426;44.726;10.390;2023-01-26T10:31:19;100535.81;;;14.10;100.00
59608;BME280;45426;44.726;10.390;2023-01-26T10:36:14;100537.13;;;12.22;100.00
59608;BME280;45426;44.726;10.390;2023-01-26T10:38:41;100547.22;;;9.99;100.00
59608;BME280;45426;44.726;10.390;2023-01-26T10:43:52;100551.03;;;8.24;100.00
59608;BME280;45426;44.726;10.390;2023-01-26T10:46:38;100540.00;;;8.51;100.00
59608;BME280;45426;44.726;10.390;2023-01-26T10:51:33;100537.31;;;7.12;100.00
59608;BME280;45426;44.726;10.390;2023-01-26T10:54:26;100528.59;;;8.32;100.00
59608;BME280;45426;44.726;10.390;2023-01-26T10:59:40;100515.50;;;9.18;100.00
59608;BME280;45426;44.726;10.390;2023-01-26T11:04:37;100505.44;;;8.17;100.00
59608;BME280;45426;44.726;10.390;2023-01-26T11:07:24;100498.94;;;9.75;100.00
59608;BME280;45426;44.726;10.390;2023-01-26T11:09:51;100498.94;;;9.75;100.00
59608;BME280;45426;44.726;10.390;2023-01-26T11:12:19;100493.13;;;9.29;100.00
59608;BME280;45426;44.726;10.390;2023-01-26T11:15:03;100494.78;;;8.87;100.00
59608;BME280;45426;44.726;10.390;2023-01-26T11:17:41;100485.34;;;9.10;100.00
59608;BME280;45426;44.726;10.390;2023-01-26T11:36:47;100468.16;;;8.80;100.00
59608;BME280;45426;44.726;10.390;2023-01-26T11:42:24;100458.28;;;8.76;100.00
59608;BME280;45426;44.726;10.390;2023-01-26T11:51:01;100441.84;;;8.54;100.00
59608;BME280;45426;44.726;10.390;2023-01-26T11:53:45;100434.91;;;8.13;100.00
59608;BME280;45426;44.726;10.390;2023-01-26T11:56:39;100439.28;;;8.41;100.00
59608;BME280;45426;44.726;10.390;2023-01-26T11:59:16;100426.75;;;9.44;100.00
59608;BME280;45426;44.726;10.390;2023-01-26T12:02:13;100426.97;;;8.08;100.00
59608;BME280;45426;44.726;10.390;2023-01-26T12:04:45;100416.19;;;8.34;100.00
59608;BME280;45426;44.726;10.390;2023-01-26T12:07:20;100412.88;;;8.55;100.00
59608;BME280;45426;44.726;10.390;2023-01-26T12:09:48;100401.84;;;9.51;100.00
59608;BME280;45426;44.726;10.390;2023-01-26T12:12:34;100407.56;;;9.58;100.00
59608;BME280;45426;44.726;10.390;2023-01-26T12:15:10;100396.44;;;9.51;100.00
59608;BME280;45426;44.726;10.390;2023-01-26T12:18:09;100386.38;;;9.81;100.00
59608;BME280;45426;44.726;10.390;2023-01-26T12:20:41;100390.31;;;9.16;100.00
59608;BME280;45426;44.726;10.390;2023-01-26T12:26:12;100379.59;;;9.66;100.00
59608;BME280;45426;44.726;10.390;2023-01-26T12:33:51;100365.81;;;9.03;100.00
59608;BME280;45426;44.726;10.390;2023-01-26T12:36:39;100361.69;;;8.97;100.00
59608;BME280;45426;44.726;10.390;2023-01-26T12:39:11;100369.84;;;8.80;100.00
59608;BME280;45426;44.726;10.390;2023-01-26T12:46:50;100349.13;;;8.84;100.00
59608;BME280;45426;44.726;10.390;2023-01-26T12:49:29;100348.97;;;8.89;100.00
59608;BME280;45426;44.726;10.390;2023-01-26T12:52:02;100339.31;;;8.44;100.00
59608;BME280;45426;44.726;10.390;2023-01-26T12:54:44;100332.56;;;8.77;100.00
59608;BME280;45426;44.726;10.390;2023-01-26T12:57:22;100332.13;;;8.57;100.00
59608;BME280;45426;44.726;10.390;2023-01-26T12:59:49;100336.81;;;7.64;100.00
59608;BME280;45426;44.726;10.390;2023-01-26T13:04:44;100325.75;;;8.62;100.00
59608;BME280;45426;44.726;10.390;2023-01-26T13:07:35;100322.09;;;9.13;100.00
59608;BME280;45426;44.726;10.390;2023-01-26T13:15:13;100308.09;;;9.11;100.00
59608;BME280;45426;44.726;10.390;2023-01-26T13:17:41;100316.63;;;8.84;100.00
59608;BME280;45426;44.726;10.390;2023-01-26T13:20:40;100310.47;;;9.13;100.00
59608;BME280;45426;44.726;10.390;2023-01-26T13:26:40;100303.31;;;8.44;100.00
59608;BME280;45426;44.726;10.390;2023-01-26T13:31:51;100297.09;;;7.82;100.00
59608;BME280;45426;44.726;10.390;2023-01-26T13:34:20;100302.31;;;7.78;100.00
59608;BME280;45426;44.726;10.390;2023-01-26T13:36:47;100307.53;;;7.57;100.00
59608;BME280;45426;44.726;10.390;2023-01-26T13:39:26;100295.63;;;8.02;100.00
59608;BME280;45426;44.726;10.390;2023-01-26T13:41:53;100291.03;;;8.20;100.00
59608;BME280;45426;44.726;10.390;2023-01-26T13:44:21;100288.94;;;7.91;100.00
59608;BME280;45426;44.726;10.390;2023-01-26T13:47:00;100292.91;;;7.76;100.00
59608;BME280;45426;44.726;10.390;2023-01-26T13:49:36;100285.94;;;8.45;100.00
59608;BME280;45426;44.726;10.390;2023-01-26T13:52:03;100284.84;;;8.46;100.00
59608;BME280;45426;44.726;10.390;2023-01-26T13:54:40;100284.97;;;7.88;100.00
59608;BME280;45426;44.726;10.390;2023-01-26T13:57:10;100284.03;;;8.02;100.00
59608;BME280;45426;44.726;10.390;2023-01-26T13:59:57;100282.13;;;8.20;100.00
59608;BME280;45426;44.726;10.390;2023-01-26T14:02:33;100285.94;;;8.45;100.00
59608;BME280;45426;44.726;10.390;2023-01-26T14:05:00;100286.22;;;8.69;100.00
59608;BME280;45426;44.726;10.390;2023-01-26T14:07:41;100285.63;;;8.20;100.00
59608;BME280;45426;44.726;10.390;2023-01-26T14:10:15;100292.28;;;7.62;100.00
59608;BME280;45426;44.726;10.390;2023-01-26T14:12:45;100290.22;;;7.85;100.00
59608;BME280;45426;44.726;10.390;2023-01-26T14:15:28;100293.13;;;7.31;100.00
59608;BME280;45426;44.726;10.390;2023-01-26T14:20:36;100276.88;;;7.97;100.00